Time;durP1;ratioP1;P1;durP2;ratioP2;P2;SDS_P1;SDS_P2;PMS_P1;PMS_P2;Temp;Humidity;BMP_temperature;BMP_pressure;BME280_temperature;BME280_humidity;BME280_pressure;Samples;Min_cycle;Max_cycle;Signal;HPM_P1;HPM_P2
2022/10/18 00:02:39;;;;;;;16.25;8.50;;;;;;;14.21;100.00;100200.80;4201266;82;28509;-89
2022/10/18 00:08:40;;;;;;;16.60;8.98;;;;;;;13.91;100.00;100197.50;4190920;83;28524;-90
2022/10/18 00:14:42;;;;;;;20.97;9.13;;;;;;;14.04;100.00;100199.75;4191126;83;28451;-90
2022/10/18 00:20:44;;;;;;;19.90;8.85;;;;;;;13.88;100.00;100191.17;4188842;83;28496;-89
2022/10/18 00:26:45;;;;;;;17.90;8.85;;;;;;;13.94;100.00;100189.45;4212260;81;28506;-88
2022/10/18 00:32:46;;;;;;;20.48;9.53;;;;;;;13.87;100.00;100181.95;4229829;81;28539;-86
2022/10/18 00:38:49;;;;;;;18.32;9.75;;;;;;;13.95;100.00;100174.88;4224255;83;28497;-86
2022/10/18 00:45:14;;;;;;;14.90;9.28;;;;;;;14.02;100.00;100177.53;4216369;83;28469;-89
2022/10/18 00:51:20;;;;;;;18.82;8.98;;;;;;;13.99;100.00;100173.91;4210398;81;28509;-86
2022/10/18 00:57:22;;;;;;;17.27;9.28;;;;;;;13.84;100.00;100171.58;4205562;83;28541;-87
2022/10/18 01:03:26;;;;;;;15.28;9.35;;;;;;;13.73;100.00;100173.97;4197623;83;28543;-88
2022/10/18 01:09:41;;;;;;;16.57;9.25;;;;;;;13.72;100.00;100170.97;4218292;83;28533;-88
2022/10/18 01:16:02;;;;;;;23.12;11.18;;;;;;;13.67;100.00;100169.48;4173227;83;28561;-88
2022/10/18 01:22:18;;;;;;;24.90;13.48;;;;;;;13.47;100.00;100165.09;4211023;83;28500;-88
2022/10/18 01:28:36;;;;;;;17.80;10.33;;;;;;;13.66;100.00;100167.83;4213733;83;28529;-87
2022/10/18 01:34:41;;;;;;;24.18;11.93;;;;;;;13.76;100.00;100174.05;4218205;82;28568;-88
2022/10/18 01:40:47;;;;;;;17.80;10.10;;;;;;;13.41;100.00;100167.30;4229273;81;28539;-87
2022/10/18 01:46:52;;;;;;;20.75;10.88;;;;;;;13.45;100.00;100162.31;4214188;82;28493;-87
2022/10/18 01:52:56;;;;;;;18.27;10.40;;;;;;;13.52;100.00;100171.99;4137622;81;28489;-84
2022/10/18 01:59:09;;;;;;;18.32;10.28;;;;;;;13.33;100.00;100168.41;4239428;81;28531;-87
2022/10/18 02:05:21;;;;;;;18.82;10.30;;;;;;;13.23;100.00;100164.88;4206974;82;28473;-87
2022/10/18 02:11:25;;;;;;;19.30;11.10;;;;;;;13.34;100.00;100157.91;4242636;82;28492;-87
2022/10/18 02:17:29;;;;;;;19.02;11.28;;;;;;;13.20;100.00;100164.48;4275061;81;28485;-87
2022/10/18 02:23:32;;;;;;;18.00;10.05;;;;;;;13.18;100.00;100161.19;4297955;81;28526;-85
2022/10/18 02:29:37;;;;;;;18.23;9.75;;;;;;;13.06;100.00;100159.17;4238106;81;28524;-87
2022/10/18 02:35:48;;;;;;;16.67;9.28;;;;;;;13.07;100.00;100160.02;4267152;82;28534;-86
2022/10/18 02:41:49;;;;;;;15.80;9.23;;;;;;;13.13;100.00;100163.19;4235033;81;28540;-89
2022/10/18 02:47:51;;;;;;;17.52;9.13;;;;;;;13.01;100.00;100156.83;4258436;82;28537;-88
2022/10/18 02:53:53;;;;;;;17.05;9.23;;;;;;;12.88;100.00;100153.19;4219471;82;28551;-89
2022/10/18 02:59:56;;;;;;;15.95;8.98;;;;;;;12.65;100.00;100159.16;4195757;83;28957;-86
2022/10/18 03:05:58;;;;;;;18.00;8.63;;;;;;;12.45;100.00;100161.47;4175692;83;28565;-86
2022/10/18 03:11:59;;;;;;;13.98;7.28;;;;;;;12.48;100.00;100158.34;4198905;83;28549;-88
2022/10/18 03:18:00;;;;;;;13.43;7.55;;;;;;;12.34;100.00;100158.92;4188042;83;28543;-90
2022/10/18 03:24:03;;;;;;;10.75;7.20;;;;;;;12.43;100.00;100155.44;4233525;83;28510;-89
2022/10/18 03:30:05;;;;;;;11.95;6.67;;;;;;;12.53;100.00;100156.34;4229391;83;28559;-87
2022/10/18 03:36:06;;;;;;;13.93;7.50;;;;;;;12.36;100.00;100160.06;4190766;83;28603;-87
2022/10/18 03:42:08;;;;;;;10.30;6.37;;;;;;;12.22;100.00;100159.30;4225981;82;28487;-86
2022/10/18 03:48:09;;;;;;;11.12;6.22;;;;;;;12.11;100.00;100163.47;4285151;81;28523;-86
2022/10/18 03:54:11;;;;;;;13.38;7.45;;;;;;;12.13;100.00;100163.58;4262891;82;29087;-84
2022/10/18 04:00:13;;;;;;;12.47;6.92;;;;;;;12.21;100.00;100166.55;4229894;82;28542;-86
2022/10/18 04:06:15;;;;;;;10.43;6.17;;;;;;;12.26;100.00;100161.86;4246767;83;28507;-87
2022/10/18 04:12:16;;;;;;;14.83;8.10;;;;;;;12.42;100.00;100160.53;4208862;83;28516;-86
2022/10/18 04:18:18;;;;;;;10.60;5.92;;;;;;;12.38;100.00;100147.19;4193263;83;28565;-85
2022/10/18 04:24:19;;;;;;;11.10;6.95;;;;;;;12.17;100.00;100155.05;4202380;83;28496;-77
2022/10/18 04:30:20;;;;;;;15.20;8.03;;;;;;;12.24;100.00;100154.00;4195961;83;28651;-78
2022/10/18 04:36:22;;;;;;;15.15;7.83;;;;;;;12.16;100.00;100155.59;4204681;83;28557;-78
2022/10/18 04:42:26;;;;;;;12.20;6.58;;;;;;;12.15;100.00;100155.28;4188686;83;28509;-77
2022/10/18 04:48:30;;;;;;;12.75;6.95;;;;;;;12.14;100.00;100153.63;4170114;83;28572;-81
2022/10/18 04:54:32;;;;;;;13.30;6.97;;;;;;;11.89;100.00;100165.08;4205356;83;28575;-80
2022/10/18 05:00:33;;;;;;;15.03;8.05;;;;;;;12.09;100.00;100156.97;4179559;83;28501;-79
2022/10/18 05:06:34;;;;;;;17.12;8.20;;;;;;;12.19;100.00;100157.03;4175317;83;28547;-78
2022/10/18 05:12:35;;;;;;;17.02;10.10;;;;;;;12.18;100.00;100160.24;4197578;83;28562;-81
2022/10/18 05:18:38;;;;;;;19.23;10.55;;;;;;;12.37;100.00;100156.33;4224232;83;28621;-83
2022/10/18 05:24:42;;;;;;;17.75;9.60;;;;;;;12.50;100.00;100172.42;4230877;83;28542;-83
2022/10/18 05:30:43;;;;;;;20.52;10.08;;;;;;;12.64;100.00;100177.73;4144828;83;28538;-88
2022/10/18 05:36:55;;;;;;;19.20;9.50;;;;;;;12.43;100.00;100172.97;4119843;83;28963;-87
2022/10/18 05:43:06;;;;;;;17.25;9.53;;;;;;;12.63;100.00;100179.63;4165722;83;28472;-83
2022/10/18 05:49:21;;;;;;;19.35;10.20;;;;;;;12.69;100.00;100178.73;4128229;83;28559;-85
2022/10/18 05:55:23;;;;;;;18.42;9.70;;;;;;;12.52;100.00;100178.42;4132784;83;28551;-86
2022/10/18 06:01:24;;;;;;;17.98;10.32;;;;;;;12.66;100.00;100177.83;4183589;83;28537;-85
2022/10/18 06:07:25;;;;;;;17.62;10.13;;;;;;;12.92;100.00;100187.33;4200805;83;28522;-86
2022/10/18 06:13:27;;;;;;;21.15;10.65;;;;;;;13.05;100.00;100184.52;4210644;83;28653;-86
2022/10/18 06:19:28;;;;;;;20.32;10.50;;;;;;;13.00;100.00;100188.41;4193069;83;28534;-85
2022/10/18 06:25:29;;;;;;;19.67;10.72;;;;;;;13.28;100.00;100190.38;4212754;83;28516;-86
2022/10/18 06:31:31;;;;;;;22.77;11.80;;;;;;;13.48;100.00;100180.25;4216115;82;28471;-86
2022/10/18 06:37:34;;;;;;;21.75;10.65;;;;;;;13.84;100.00;100189.98;4247889;82;28468;-85
2022/10/18 06:43:35;;;;;;;20.02;10.30;;;;;;;14.25;100.00;100181.41;4268250;82;28506;-85
2022/10/18 06:49:40;;;;;;;18.17;9.30;;;;;;;14.45;100.00;100190.61;4230419;82;28518;-85
2022/10/18 06:55:55;;;;;;;17.37;10.03;;;;;;;14.63;100.00;100191.92;4224320;82;28535;-85
2022/10/18 07:02:00;;;;;;;18.12;9.95;;;;;;;14.91;100.00;100184.27;4147761;83;28539;-85
2022/10/18 07:08:01;;;;;;;18.57;9.80;;;;;;;15.13;100.00;100185.91;4175474;82;28534;-84
2022/10/18 07:14:04;;;;;;;20.35;10.53;;;;;;;15.39;100.00;100177.58;4200404;82;28601;-84
2022/10/18 07:20:06;;;;;;;18.27;9.65;;;;;;;15.57;100.00;100185.59;4247997;82;28513;-84
2022/10/18 07:26:28;;;;;;;24.67;11.38;;;;;;;15.88;100.00;100182.20;4239833;82;28500;-84
2022/10/18 07:32:29;;;;;;;24.43;13.78;;;;;;;16.06;100.00;100179.61;4164506;83;28520;-84
2022/10/18 07:38:31;;;;;;;35.85;21.40;;;;;;;16.23;100.00;100166.91;4207732;83;28561;-84
2022/10/18 07:44:32;;;;;;;25.20;14.47;;;;;;;16.43;100.00;100158.87;4177728;83;28519;-84
2022/10/18 07:50:35;;;;;;;21.37;11.03;;;;;;;16.65;100.00;100166.33;4202504;83;28480;-84
2022/10/18 07:56:38;;;;;;;18.85;9.98;;;;;;;16.96;100.00;100158.20;4193318;83;28511;-85
2022/10/18 08:02:39;;;;;;;15.83;9.68;;;;;;;17.08;100.00;100155.97;4186870;83;28506;-84
2022/10/18 08:08:41;;;;;;;17.60;8.83;;;;;;;17.32;98.79;100155.78;4208495;83;28572;-84
2022/10/18 08:14:42;;;;;;;23.05;9.60;;;;;;;17.46;90.77;100145.39;4207410;83;28510;-84
2022/10/18 08:20:45;;;;;;;14.58;8.00;;;;;;;17.61;85.65;100140.70;4208459;83;28520;-84
2022/10/18 08:26:49;;;;;;;16.12;9.08;;;;;;;17.79;86.03;100132.25;4162035;83;28567;-84
2022/10/18 08:32:53;;;;;;;12.98;7.95;;;;;;;17.95;83.59;100135.15;4189046;81;28490;-84
2022/10/18 08:38:53;;;;;;;14.80;7.12;;;;;;;17.99;79.37;100134.94;4164343;83;28509;-84
2022/10/18 08:44:55;;;;;;;14.80;7.20;;;;;;;18.20;79.29;100116.97;4208674;83;28470;-84
2022/10/18 08:50:58;;;;;;;11.75;6.22;;;;;;;18.15;74.18;100118.81;4234963;83;28501;-84
2022/10/18 08:57:09;;;;;;;9.78;5.62;;;;;;;18.38;75.67;100115.81;4208456;83;28572;-84
2022/10/18 09:03:20;;;;;;;10.65;6.00;;;;;;;18.44;72.02;100110.41;4194153;83;28538;-84
2022/10/18 09:09:48;;;;;;;10.53;5.95;;;;;;;18.49;72.12;100103.66;4286972;81;28501;-85
2022/10/18 09:15:57;;;;;;;10.75;6.05;;;;;;;18.57;70.13;100101.81;4249161;81;28518;-85
2022/10/18 09:22:12;;;;;;;12.68;6.08;;;;;;;18.90;71.41;100086.30;4282188;81;28518;-85
2022/10/18 09:28:34;;;;;;;9.90;6.03;;;;;;;19.16;72.62;100068.78;4268628;81;28529;-84
2022/10/18 09:34:40;;;;;;;11.18;5.95;;;;;;;19.43;72.19;100058.84;4266384;81;28520;-85
2022/10/18 09:40:53;;;;;;;12.10;5.78;;;;;;;18.91;75.05;100048.96;4268647;81;28586;-85
2022/10/18 09:47:09;;;;;;;8.18;5.12;;;;;;;19.03;75.84;100048.81;4241154;83;28482;-86
2022/10/18 09:53:31;;;;;;;11.18;5.70;;;;;;;19.42;72.26;100038.95;4219467;82;28589;-86
2022/10/18 09:59:41;;;;;;;11.48;5.30;;;;;;;19.06;74.38;100036.84;4162541;83;28535;-85
2022/10/18 10:05:43;;;;;;;9.78;4.58;;;;;;;19.47;71.85;100025.31;4200955;83;28521;-86
2022/10/18 10:11:51;;;;;;;7.37;4.50;;;;;;;19.58;71.11;100013.08;4185166;83;28538;-85
2022/10/18 10:18:21;;;;;;;8.68;4.10;;;;;;;19.93;71.31;100004.73;4196683;83;28495;-85
2022/10/18 10:24:36;;;;;;;7.28;3.77;;;;;;;20.19;68.75;100004.79;4249351;81;28468;-86
2022/10/18 10:30:37;;;;;;;7.78;3.40;;;;;;;19.68;68.22;99988.56;4260193;82;28522;-86
2022/10/18 10:36:50;;;;;;;4.25;3.22;;;;;;;19.78;67.15;99987.75;4200083;83;28523;-83
2022/10/18 10:43:04;;;;;;;7.30;3.50;;;;;;;19.88;65.96;99973.33;4248700;83;28506;-85
2022/10/18 10:49:10;;;;;;;8.45;3.62;;;;;;;19.98;65.69;99958.37;4206986;83;28534;-86
2022/10/18 10:55:19;;;;;;;7.15;4.33;;;;;;;20.72;63.72;99950.40;4247823;82;28522;-86
2022/10/18 11:01:32;;;;;;;10.80;4.50;;;;;;;20.81;63.14;99941.08;4160205;83;28530;-84
2022/10/18 11:07:37;;;;;;;5.75;4.25;;;;;;;21.07;63.95;99921.90;4170672;83;28444;-83
2022/10/18 11:13:53;;;;;;;8.30;5.03;;;;;;;20.69;63.92;99920.91;4200290;83;28550;-83
2022/10/18 11:20:11;;;;;;;9.00;4.70;;;;;;;20.71;63.06;99909.95;4192708;83;28490;-84
2022/10/18 11:26:41;;;;;;;8.45;5.22;;;;;;;21.33;60.23;99899.35;4199737;83;28587;-84
2022/10/18 11:32:50;;;;;;;12.07;4.80;;;;;;;21.53;59.83;99886.08;4190373;83;28593;-84
2022/10/18 11:39:00;;;;;;;8.30;4.22;;;;;;;21.53;58.29;99884.72;4213881;83;28528;-84
2022/10/18 11:45:34;;;;;;;8.20;4.65;;;;;;;21.56;56.31;99874.59;4214432;83;28567;-84
2022/10/18 11:51:52;;;;;;;8.23;4.78;;;;;;;21.71;56.76;99868.23;4195724;83;28497;-84
2022/10/18 11:58:24;;;;;;;10.58;5.17;;;;;;;21.80;55.14;99858.84;4171461;83;28567;-84
2022/10/18 12:04:40;;;;;;;9.68;5.00;;;;;;;22.06;54.85;99846.85;4199750;83;28541;-84
2022/10/18 12:10:51;;;;;;;8.90;4.95;;;;;;;22.05;52.53;99839.75;4244448;81;28551;-84
2022/10/18 12:16:57;;;;;;;8.95;4.83;;;;;;;22.19;53.33;99833.84;4233201;83;28506;-84
2022/10/18 12:23:06;;;;;;;9.58;5.65;;;;;;;22.21;52.60;99830.25;4198476;83;28505;-86
2022/10/18 12:29:42;;;;;;;8.83;4.70;;;;;;;22.23;52.67;99821.22;4247551;82;28550;-87
2022/10/18 12:42:58;;;;;;;9.25;4.45;;;;;;;22.55;53.61;99797.88;4033368;85;28500;-85
2022/10/18 12:49:04;;;;;;;7.20;4.78;;;;;;;22.48;51.30;99782.84;4176993;83;28474;-85
2022/10/18 12:55:17;;;;;;;8.47;4.87;;;;;;;22.49;50.20;99784.50;4176798;83;28486;-85
2022/10/18 13:01:17;;;;;;;10.18;4.92;;;;;;;22.47;52.59;99775.73;4159105;83;28531;-89
2022/10/18 13:07:23;;;;;;;7.75;4.37;;;;;;;21.92;52.96;99770.05;4123022;84;28539;-79
2022/10/18 13:14:00;;;;;;;9.20;4.47;;;;;;;22.00;50.87;99766.69;4114690;84;28568;-79
2022/10/18 13:20:28;;;;;;;7.37;4.05;;;;;;;22.08;52.44;99747.44;4144875;84;28573;-79
2022/10/18 13:26:57;;;;;;;7.30;4.05;;;;;;;22.62;51.56;99733.66;4083422;84;28522;-84
2022/10/18 13:33:34;;;;;;;9.33;4.05;;;;;;;22.35;52.43;99727.67;4186367;82;28638;-83
2022/10/18 13:39:38;;;;;;;10.03;4.50;;;;;;;22.19;53.38;99718.83;4190657;82;28567;-84
2022/10/18 13:45:45;;;;;;;11.20;4.35;;;;;;;22.27;53.06;99709.14;4194571;83;28509;-82
2022/10/18 13:52:13;;;;;;;6.28;3.95;;;;;;;22.21;53.45;99697.44;4165704;83;28534;-83
2022/10/18 13:58:49;;;;;;;6.33;3.72;;;;;;;21.98;53.42;99691.69;4132941;83;28613;-83
2022/10/18 14:05:17;;;;;;;7.47;4.42;;;;;;;22.33;53.11;99679.76;4183655;83;28502;-82
2022/10/18 14:11:43;;;;;;;8.53;4.00;;;;;;;21.88;53.47;99674.58;4215760;83;28535;-82
2022/10/18 14:18:08;;;;;;;10.03;4.40;;;;;;;21.85;53.99;99672.66;4189757;83;28559;-82
2022/10/18 14:24:15;;;;;;;9.35;4.12;;;;;;;22.36;53.19;99673.72;4163539;83;28520;-82
2022/10/18 14:30:19;;;;;;;8.83;4.53;;;;;;;22.07;53.98;99661.73;4165340;82;28618;-83
2022/10/18 14:36:25;;;;;;;8.95;4.40;;;;;;;22.40;53.52;99662.41;4123712;82;28579;-81
2022/10/18 14:42:30;;;;;;;13.03;4.40;;;;;;;22.46;52.96;99658.50;4161241;82;28524;-81
2022/10/18 14:48:31;;;;;;;8.90;4.87;;;;;;;22.28;54.39;99653.25;4172793;82;28517;-81
2022/10/18 14:54:36;;;;;;;9.23;4.60;;;;;;;21.79;55.68;99660.16;4150884;82;28574;-82
2022/10/18 15:00:44;;;;;;;9.58;5.08;;;;;;;22.07;55.39;99645.30;4180376;82;28545;-86
2022/10/18 15:06:48;;;;;;;10.18;4.78;;;;;;;21.50;56.99;99642.37;4193142;82;28560;-88
2022/10/18 15:12:59;;;;;;;10.78;5.03;;;;;;;22.03;56.60;99639.37;4163081;82;28531;-86
2022/10/18 15:19:38;;;;;;;;;;;;;;;;;;;;;
2022/10/18 15:25:40;;;;;;;10.20;4.55;;;;;;;21.29;59.04;99628.91;4173240;83;28503;-86
2022/10/18 15:31:49;;;;;;;10.63;4.85;;;;;;;21.53;59.24;99628.94;4183697;81;28515;-89
2022/10/18 15:38:30;;;;;;;10.00;4.60;;;;;;;20.74;62.09;99634.81;4191651;82;28576;-85
2022/10/18 15:52:03;;;;;;;14.13;5.92;;;;;;;20.93;60.56;99622.41;4122007;82;28610;-84
2022/10/18 15:58:47;;;;;;;13.98;5.08;;;;;;;20.77;60.81;99618.38;4172817;83;28567;-84
2022/10/18 16:04:51;;;;;;;13.22;5.83;;;;;;;20.48;63.07;99621.89;4199184;81;28480;-87
2022/10/18 16:10:57;;;;;;;12.98;5.47;;;;;;;20.28;63.63;99618.72;4163351;83;28601;-84
2022/10/18 16:17:05;;;;;;;17.40;5.83;;;;;;;20.05;63.93;99611.47;4159401;83;28567;-84
2022/10/18 16:38:20;;;;;;;19.92;8.75;;;;;;;19.59;64.86;99622.80;3751381;89;28684;-84
2022/10/18 16:45:02;;;;;;;;;;;;;;;;;;;;;
2022/10/18 16:51:10;;;;;;;17.65;9.13;;;;;;;19.62;64.71;99630.95;3826974;89;28532;-85
2022/10/18 16:58:05;;;;;;;19.30;9.65;;;;;;;19.31;66.37;99624.20;4065420;84;28592;-90
2022/10/18 17:11:42;;;;;;;27.02;11.88;;;;;;;18.85;67.38;99632.66;4055119;86;28643;-86
2022/10/18 17:18:06;;;;;;;;;;;;;;;;;;;;;
2022/10/18 17:24:21;;;;;;;26.42;12.18;;;;;;;19.09;67.68;99648.48;4160838;83;28532;-84
2022/10/18 17:30:50;;;;;;;20.72;10.28;;;;;;;18.50;69.65;99649.23;4179603;82;28528;-84
2022/10/18 17:36:54;;;;;;;22.75;11.75;;;;;;;19.08;68.09;99655.03;4147543;83;28517;-82
2022/10/18 17:42:59;;;;;;;22.27;11.20;;;;;;;19.12;67.72;99653.41;4178431;83;28601;-85
2022/10/18 17:49:14;;;;;;;23.10;11.80;;;;;;;19.07;67.73;99658.31;4183715;82;28529;-84
2022/10/18 17:55:17;;;;;;;19.85;11.33;;;;;;;19.13;67.55;99669.20;4260470;81;28562;-85
2022/10/18 18:01:22;;;;;;;21.37;11.08;;;;;;;19.15;67.59;99665.66;4251751;82;28579;-86
2022/10/18 18:07:26;;;;;;;16.48;10.32;;;;;;;19.22;67.08;99658.86;4230317;82;28534;-86
2022/10/18 18:13:34;;;;;;;15.05;9.50;;;;;;;19.30;66.62;99658.84;4204409;82;28589;-85
2022/10/18 18:19:42;;;;;;;14.68;8.83;;;;;;;19.59;65.47;99654.70;4160788;83;28579;-86
2022/10/18 18:25:58;;;;;;;20.17;9.25;;;;;;;19.59;65.12;99656.06;4162045;82;28542;-86
2022/10/18 18:32:27;;;;;;;20.55;10.28;;;;;;;19.43;65.65;99673.00;4196855;84;28472;-86
2022/10/18 18:39:11;;;;;;;19.70;10.90;;;;;;;19.56;65.56;99664.81;4002296;87;29611;-90
2022/10/18 19:13:35;;;;;;;17.27;8.50;;;;;;;20.20;62.54;99658.34;4302001;82;20248;-88
2022/10/18 19:19:44;;;;;;;14.00;8.23;;;;;;;19.79;63.99;99660.67;4150825;83;28551;-87
2022/10/18 19:32:15;;;;;;;14.75;8.33;;;;;;;19.93;64.08;99675.91;4187373;82;28524;-90
2022/10/18 19:38:28;;;;;;;14.63;8.13;;;;;;;20.65;62.83;99675.30;4307728;81;28538;-91
2022/10/18 19:44:48;;;;;;;14.25;8.73;;;;;;;20.76;62.56;99689.16;4298364;82;28509;-90
2022/10/18 19:51:12;;;;;;;12.78;7.22;;;;;;;20.49;63.36;99687.70;4294060;82;28538;-87
2022/10/18 19:57:24;;;;;;;16.32;9.15;;;;;;;20.10;64.65;99690.61;4249913;82;28598;-86
2022/10/18 20:03:30;;;;;;;15.30;9.40;;;;;;;20.24;64.99;99694.90;4273053;82;28512;-85
2022/10/18 20:09:52;;;;;;;16.63;9.70;;;;;;;20.75;63.94;99692.45;4258492;82;28553;-86
2022/10/18 20:51:26;;;;;;;4.47;2.58;;;;;;;20.65;69.86;99756.72;4081581;82;28574;-86
2022/10/18 20:57:37;;;;;;;4.62;2.10;;;;;;;19.51;100.00;99806.08;4315707;80;28518;-85
2022/10/18 21:03:47;;;;;;;2.12;1.10;;;;;;;19.45;100.00;99813.44;4299601;82;28530;-86
2022/10/18 21:09:59;;;;;;;2.40;1.12;;;;;;;18.90;100.00;99820.66;4315656;82;28518;-86
2022/10/18 21:16:07;;;;;;;0.80;0.50;;;;;;;19.04;100.00;99816.89;4277283;80;28532;-86
2022/10/18 21:22:11;;;;;;;0.50;0.37;;;;;;;18.49;100.00;99815.85;4275196;82;28494;-87
2022/10/18 21:28:15;;;;;;;2.20;0.60;;;;;;;18.54;100.00;99834.12;4186049;83;28740;-88
2022/10/18 21:34:19;;;;;;;0.50;0.45;;;;;;;19.25;100.00;99831.13;4174972;83;28496;-88
2022/10/18 21:40:25;;;;;;;0.62;0.50;;;;;;;19.00;100.00;99832.65;4276797;81;28629;-87
2022/10/18 21:46:27;;;;;;;0.68;0.40;;;;;;;18.58;100.00;99827.61;4147772;83;28559;-87
2022/10/18 21:52:28;;;;;;;0.30;0.20;;;;;;;18.44;100.00;99841.70;4160996;84;28508;-88
2022/10/18 21:58:35;;;;;;;1.05;0.30;;;;;;;18.43;100.00;99848.77;4206392;83;28540;-87
2022/10/18 22:04:40;;;;;;;1.22;0.40;;;;;;;18.51;100.00;99844.19;4192919;83;28472;-86
2022/10/18 22:10:41;;;;;;;0.40;0.40;;;;;;;18.77;100.00;99841.56;4301752;80;28534;-86
2022/10/18 22:16:42;;;;;;;0.40;0.40;;;;;;;18.48;100.00;99840.08;4302936;82;28610;-86
2022/10/18 22:22:46;;;;;;;0.42;0.37;;;;;;;18.78;100.00;99825.50;4292169;80;28515;-86
2022/10/18 22:29:02;;;;;;;0.85;0.50;;;;;;;18.73;100.00;99824.13;4275917;81;28564;-86
2022/10/18 22:35:04;;;;;;;1.30;0.60;;;;;;;18.82;100.00;99829.34;4314465;80;28508;-86
2022/10/18 22:41:10;;;;;;;1.22;0.57;;;;;;;18.38;100.00;99832.69;4355494;80;28532;-86
2022/10/18 22:47:12;;;;;;;;;;;;;;;18.48;100.00;99823.74;4355652;82;28484;-87
2022/10/18 22:53:15;;;;;;;0.90;0.60;;;;;;;18.80;100.00;99824.16;4289906;81;20187;-87
2022/10/18 22:59:17;;;;;;;1.17;0.60;;;;;;;19.02;100.00;99819.07;4247058;81;28541;-85
2022/10/18 23:05:25;;;;;;;1.45;0.70;;;;;;;19.07;100.00;99821.83;4270825;81;28648;-86
2022/10/18 23:11:35;;;;;;;2.25;0.70;;;;;;;18.96;100.00;99831.03;4253301;81;28568;-85
2022/10/18 23:17:39;;;;;;;1.67;0.78;;;;;;;18.83;100.00;99829.62;4271658;82;28526;-85
2022/10/18 23:23:53;;;;;;;0.88;0.57;;;;;;;18.97;100.00;99828.58;4315427;82;28498;-85
2022/10/18 23:29:55;;;;;;;1.67;0.47;;;;;;;18.87;100.00;99829.34;4231860;82;28559;-86
2022/10/18 23:35:58;;;;;;;1.98;0.70;;;;;;;18.76;100.00;99835.31;4139207;83;28591;-88
2022/10/18 23:41:59;;;;;;;0.93;0.80;;;;;;;19.09;100.00;99838.72;4188013;82;28559;-88
2022/10/18 23:48:01;;;;;;;10.60;6.08;;;;;;;19.25;100.00;99842.03;4242334;83;28550;-87
2022/10/18 23:54:02;;;;;;;67.00;34.98;;;;;;;19.11;100.00;99839.83;4247377;83;28552;-88
